hero-logo

Top 15 Knowers of ORCL Oracle Corp - 2017-07-20

Rank Fund Result (K)
1 Crawford Lake Capital Management Llc $4,444
2 Loomis Sayles Co L P $3,466
3 Black Creek Investment Management Inc $2,964
4 Samlyn Capital Llc $2,687
5 Voloridge Investment Management Llc $2,635
6 Raymond James Associates $2,204
7 Fiera Capital Corp $2,164
8 Menora Mivtachim Holdings Ltd $2,089
9 Northwestern Mutual Investment Management Company Llc $1,611
10 Hutchin Hill Capital Lp $1,601
11 Rothschild Asset Management Inc $1,182
12 Pineview Asset Management Lp $1,149
13 Envestnet Asset Management Inc $1,087
14 Squarepoint Ops Llc $952
15 Clearline Capital Lp $881
Price Chart and News From Google Finance for ORCL Oracle Corp
Owner Date Shares Change Price Change Result (K)
361 Capital Llc 2017-03-31 28,023 $6.16 $172
Acrospire Investment Management Llc 2017-03-31 -2,310 $6.16 $-14
Adams Diversified Equity Fund Inc 2017-03-31 -98,800 $6.16 $-608
Advantage Investment Management Llc 2017-03-31 531 $6.16 $3
Ae Wealth Management Llc 2017-03-31 3,302 $6.16 $20
Afam Capital Inc 2017-03-31 26 $6.16 $0
Ahl Partners Llp 2017-03-31 87,073 $6.16 $536
Aimz Investment Advisors Llc 2017-03-31 0 $6.16 $0
Allen Investment Management Llc 2017-03-31 -85,585 $6.16 $-527
Allsquare Wealth Management Llc 2017-03-31 -2,500 $6.16 $-15
Alpine Partners Vi Llc 2017-03-31 11,338 $6.16 $69
Amalgamated Bank 2017-03-31 1,329 $6.16 $8
Amf Pensionsforsakring Ab 2017-03-31 -24,060 $6.16 $-148
Ancora Advisors Llc 2017-03-31 -18,008 $6.16 $-110
Annex Advisory Services Llc 2017-03-31 2,433 $6.16 $14
Aperio Group Llc 2017-03-31 7,013 $6.16 $43
Archford Capital Strategies Llc 2017-03-31 1,740 $6.16 $10
Argi Investment Services Llc 2017-03-31 249 $6.16 $1
Arrow Financial Corp 2017-03-31 -1,029 $6.16 $-6
A R T Advisors Llc 2017-03-31 79,320 $6.16 $488
Aspen Investment Management Inc 2017-03-31 -245 $6.16 $-1
Assetmark Inc 2017-03-31 2,207 $6.16 $13
Aua Capital Management Llc 2017-03-31 0 $6.16 $0
Auxier Asset Management 2017-03-31 150 $6.16 $0
Avalon Advisors Llc 2017-03-31 62,332 $6.16 $383
Bahl Gaynor Inc 2017-03-31 -4,474 $6.16 $-27
Balentine Llc 2017-03-31 0 $6.16 $0
Banco Btg Pactual S A 2017-03-31 8,100 $6.16 $49
Beacon Financial Group 2017-06-30 4,245 $5.53 $23
Bell Bank 2017-03-31 57 $6.16 $0
Biegel Waller Llc 2017-03-31 0 $6.16 $0
Black Creek Investment Management Inc 2017-03-31 481,287 $6.16 $2,964
Blair William Co Il 2017-03-31 -12,695 $6.16 $-78
Bokf Na 2017-03-31 -6,264 $6.16 $-38
Boston Common Asset Management Llc 2017-03-31 16,987 $6.16 $104
Boston Private Wealth Llc 2017-03-31 -8,943 $6.16 $-55
Bowen Hanes Co Inc 2017-03-31 9,890 $6.16 $60
Bowling Portfolio Management Llc 2017-03-31 -128 $6.16 $0
Bragg Financial Advisors Inc 2017-03-31 11,969 $6.16 $73
Bridgeway Capital Management Inc 2017-03-31 -35,285 $6.16 $-217
Bridgeworth Llc 2017-03-31 5,338 $6.16 $32
Brighton Jones Llc 2017-03-31 -6,601 $6.16 $-40
Brinker Capital Inc 2017-03-31 125,157 $6.16 $770
Broderick Brian C 2017-03-31 -3,985 $6.16 $-24
Brown Brothers Harriman Co 2017-03-31 -867,084 $6.16 $-5,341
B S Pension Fund Trustee Ltd Acting For The British Steel P 2017-03-31 -6,863 $6.16 $-42
Budros Ruhlin Roe Inc 2017-03-31 4,531 $6.16 $27
California State Teachers Retirement System 2017-03-31 -267,500 $6.16 $-1,647
Camg Solamere Management Llc 2017-03-31 -218 $6.16 $-1
Canandaigua National Bank Trust Co 2017-03-31 -5,428 $6.16 $-33
Capital Guardian Trust Co 2017-03-31 -1,030 $6.16 $-6
Capstone Investment Advisors Llc 2017-03-31 140,424 $6.16 $865
Capwealth Advisors Llc 2017-03-31 32,120 $6.16 $197
Carlson Capital L P 2017-03-31 -141,665 $6.16 $-872
Cetera Advisor Networks Llc 2017-03-31 577 $6.16 $3
Cetera Advisors Llc 2017-03-31 2,457 $6.16 $15
Cetera Investment Advisers 2017-03-31 6,370 $6.16 $39
Chartwell Investment Partners Llc 2017-03-31 0 $6.16 $0
Circle Wealth Management Llc 2017-03-31 21 $6.16 $0
Clearline Capital Lp 2017-03-31 143,100 $6.16 $881
Clear Perspective Advisors Llc 2017-03-31 -310 $6.16 $-1
Cmh Wealth Management Llc 2017-03-31 -305 $6.16 $-1
Cmt Asset Management Ltd 2017-03-31 -6,500 $6.16 $-40
Cna Financial Corp 2017-03-31 -10,200 $6.16 $-62
Cognios Capital Llc 2017-03-31 -21,921 $6.16 $-135
Colony Group Llc 2017-03-31 12,482 $6.16 $76
Compagnie Lombard Odier Scma 2017-03-31 -67,303 $6.16 $-414
Compton Capital Management Inc Ri 2017-03-31 -1,503 $6.16 $-9
Cornerstone Capital Management Holdings Llc 2017-03-31 -170,826 $6.16 $-1,052
Covey Capital Advisors Llc 2017-03-31 5,000 $6.16 $30
Covington Capital Management 2017-03-31 -16,066 $6.16 $-98
Crawford Investment Counsel Inc 2017-03-31 -70 $6.16 $0
Crawford Lake Capital Management Llc 2017-03-31 721,451 $6.16 $4,444
Cs Mckee Lp 2017-03-31 -35,043 $6.16 $-215
Cypress Wealth Advisors Llc 2017-03-31 -286 $6.16 $-1
D A Davidson Co 2017-03-31 3,854 $6.16 $23
Dana Investment Advisors Inc 2017-03-31 -12,207 $6.16 $-75
Davidson Investment Advisors 2017-03-31 -50 $6.16 $0
Davy Asset Management Ltd 2017-03-31 -12,191 $6.16 $-75
Delaney Dennis R 2017-03-31 -1,200 $6.16 $-7
Dempze Nancy E 2017-03-31 -1,095 $6.16 $-6
Denver Investment Advisors Llc 2017-03-31 -3,497 $6.16 $-21
Dorazio Associates Inc 2017-03-31 2 $6.16 $0
Eagle Capital Management Llc 2017-03-31 -592,047 $6.16 $-3,647
Eagle Global Advisors Llc 2017-03-31 0 $6.16 $0
Earnest Partners Llc 2017-03-31 -1,474 $6.16 $-9
Edgestream Partners L P 2017-03-31 26,245 $6.16 $161
Edmond De Rothschild Holding S A 2017-03-31 130,840 $6.16 $805
Efg Asset Management Americas Corp 2017-03-31 -75,032 $6.16 $-462
Elefante Mark B 2017-03-31 -406 $6.16 $-2
Elkhorn Investments Llc 2017-03-31 26,555 $6.16 $163
Ellington Management Group Llc 2017-03-31 16,900 $6.16 $104
Envestnet Asset Management Inc 2017-03-31 176,567 $6.16 $1,087
Ep Wealth Advisors Inc 2017-03-31 24,442 $6.16 $150
Estabrook Capital Management 2017-03-31 -300 $6.16 $-1
Fairfield Bush Co 2017-03-31 4,672 $6.16 $28
Farmers National Bank 2017-03-31 -140 $6.16 $0
Fayerweather Charles 2017-03-31 -510 $6.16 $-3
Fdo Partners Llc 2017-03-31 -22,581 $6.16 $-139
Fdx Advisors Inc 2017-03-31 -2,803 $6.16 $-17
Fic Capital Inc 2017-03-31 -400 $6.16 $-2
Fiera Capital Corp 2017-03-31 351,312 $6.16 $2,164
First Commonwealth Financial Corp Pa 2017-03-31 -1,543 $6.16 $-9
First Foundation Advisors 2017-03-31 41,370 $6.16 $254
First Heartland Consultants Inc 2017-03-31 234 $6.16 $1
First Pacific Advisors Llc 2017-03-31 -376,450 $6.16 $-2,318
First Republic Investment Management Inc 2017-03-31 13,526 $6.16 $83
Flagship Harbor Advisors Llc 2017-03-31 0 $6.16 $0
Flow Traders U S Llc 2017-03-31 8,427 $6.16 $51
Focused Wealth Management Inc 2017-03-31 250 $6.16 $1
Folger Hill Asset Management Lp 2017-03-31 122,204 $6.16 $752
Forester Capital Management Ltd 2017-03-31 -1,890 $6.16 $-11
Fort L P 2017-03-31 -12,751 $6.16 $-78
Fort Point Capital Partners Llc 2017-03-31 -73 $6.16 $0
Gardiner Nancy B 2017-03-31 -1,305 $6.16 $-8
Genesee Valley Trust Co 2017-03-31 -303 $6.16 $-1
Girard Securities Inc 2017-03-31 -6,431 $6.16 $-39
Glassman Wealth Services 2017-03-31 -36 $6.16 $0
Glg Llc 2017-03-31 -418 $6.16 $-2
Godshalk Welsh Capital Management Inc 2017-03-31 -300 $6.16 $-1
Gotham Asset Management Llc 2017-03-31 -553,200 $6.16 $-3,407
Green Square Capital Llc 2017-03-31 6,189 $6.16 $38
Greenwich Wealth Management Llc 2017-03-31 -59,934 $6.16 $-369
Greenwood Gearhart Inc 2017-03-31 1,745 $6.16 $10
Group One Trading L P 2017-03-31 3,428 $6.16 $21
Gsa Capital Partners Llp 2017-03-31 39,516 $6.16 $243
Guardian Capital Advisors Lp 2017-03-31 1,307 $6.16 $8
Guardian Capital Lp 2017-03-31 8,764 $6.16 $53
Guggenheim Capital Llc 2017-03-31 33,617 $6.16 $207
Hanson Doremus Investment Management 2017-03-31 0 $6.16 $0
Hbk Sorce Advisory Llc 2017-03-31 506 $6.16 $3
Hcr Wealth Advisors 2017-03-31 -543 $6.16 $-3
High Falls Advisors Inc 2017-03-31 5 $6.16 $0
Highlander Capital Management Llc 2017-03-31 1,117 $6.16 $6
Highvista Strategies Llc 2017-03-31 -5,600 $6.16 $-34
Horizon Kinetics Llc 2017-03-31 -1,717 $6.16 $-10
Hutchin Hill Capital Lp 2017-03-31 260,000 $6.16 $1,601
Ibex Wealth Advisors 2017-03-31 -5,804 $6.16 $-35
Ifp Advisors Inc 2017-03-31 11,809 $6.16 $72
Iht Wealth Management Llc 2017-03-31 -424 $6.16 $-2
Intact Investment Management Inc 2017-03-31 8,900 $6.16 $54
Intellectus Partners Llc 2017-03-31 720 $6.16 $4
Interocean Capital Llc 2017-03-31 -5,292 $6.16 $-32
Invictus Rg 2017-03-31 8,633 $6.16 $53
Ironsides Asset Advisors Llc 2017-03-31 -12,964 $6.16 $-79
Israel Discount Bank Of New York 2017-03-31 3,853 $6.16 $23
Itau Unibanco Holding S A 2017-03-31 300 $6.16 $1
Jackson Grant Investment Advisers Inc 2017-03-31 4 $6.16 $0
Jacobs Levy Equity Management Inc 2017-03-31 -37,890 $6.16 $-233
Jaffetilchin Investment Partners Llc 2017-03-31 6,302 $6.16 $38
Jane Street Group Llc 2017-03-31 -33,703 $6.16 $-207
Jarislowsky Fraser Ltd 2017-03-31 -76,646 $6.16 $-472
Johnson Investment Counsel Inc 2017-03-31 -27,126 $6.16 $-167
Kdi Capital Partners Llc 2017-03-31 -6,300 $6.16 $-38
Keel Point Llc 2017-03-31 11 $6.16 $0
Kelly Lawrence W Associates Inc Ca 2017-03-31 0 $6.16 $0
Kentucky Retirement Systems 2017-03-31 -25,329 $6.16 $-156
Kentucky Retirement Systems Insurance Trust Fund 2017-03-31 -15,992 $6.16 $-98
Kernodle Katon Asset Management Group Llc 2017-03-31 2,000 $6.16 $12
Kidder Stephen W 2017-03-31 -6,775 $6.16 $-41
Krilogy Financial Llc 2017-03-31 0 $6.16 $0
Ladenburg Thalmann Financial Services Inc 2017-03-31 5,863 $6.16 $36
Lakewood Capital Management Lp 2017-03-31 -722,106 $6.16 $-4,448
Lcnb Corp 2017-03-31 -273 $6.16 $-1
Lee Financial Corp 2017-03-31 0 $6.16 $0
Lejeune Puetz Investment Counsel Llc 2017-03-31 -1,000 $6.16 $-6
Lenox Wealth Management Inc 2017-03-31 -449 $6.16 $-2
Leucadia National Corp 2017-03-31 11,627 $6.16 $71
Lincoln Capital Corp 2017-03-31 35,536 $6.16 $218
Logan Capital Management Inc 2017-03-31 -20,766 $6.16 $-127
Long Road Investment Counsel Llc 2017-03-31 0 $6.16 $0
Loomis Sayles Co L P 2017-03-31 562,708 $6.16 $3,466
Lowe Brockenbrough Co Inc 2017-03-31 569 $6.16 $3
Madison Investment Holdings Inc 2017-03-31 -64,331 $6.16 $-396
Magellan Asset Management Ltd 2017-03-31 -134,039 $6.16 $-825
Marco Investment Management Llc 2017-03-31 -1,098 $6.16 $-6
Mariner Wealth Advisors Llc 2017-03-31 -540 $6.16 $-3
Martin Co Inc Tn 2017-03-31 -270 $6.16 $-1
Mason Street Advisors Llc 2017-03-31 4,187 $6.16 $25
Meadow Creek Investment Management Llc 2017-03-31 -26,288 $6.16 $-161
Menora Mivtachim Holdings Ltd 2017-03-31 339,200 $6.16 $2,089
M Holdings Securities Inc 2017-03-31 -765 $6.16 $-4
Miles Capital Inc 2017-03-31 -6,232 $6.16 $-38
Mogy Joel R Investment Counsel Inc 2017-03-31 -7,650 $6.16 $-47
Moloney Securities Asset Management Llc 2017-03-31 -132 $6.16 $0
Monroe Bank Trust Mi 2017-03-31 -675 $6.16 $-4
Montecito Bank Trust 2017-03-31 127 $6.16 $0
Mv Capital Management Inc 2017-03-31 0 $6.16 $0
Narus Financial Partners Llc 2017-03-31 4,750 $6.16 $29
National Asset Management Inc 2017-03-31 -6,290 $6.16 $-38
Neuburgh Advisers Llc 2017-03-31 -36,146 $6.16 $-222
New York Life Trust Co 2017-03-31 -839 $6.16 $-5
Northwestern Mutual Investment Management Company Llc 2017-03-31 261,685 $6.16 $1,611
Northwestern Mutual Wealth Management Co 2017-03-31 -21,798 $6.16 $-134
Notis-Mcconarty Edward 2017-03-31 -1,500 $6.16 $-9
One Capital Management Llc 2017-03-31 -6,128 $6.16 $-37
Optimum Investment Advisors 2017-03-31 -2,000 $6.16 $-12
Pacific Center For Financial Services 2017-03-31 0 $6.16 $0
Page Arthur B 2017-03-31 -2,250 $6.16 $-13
Pagnatokarp Partners Llc 2017-03-31 -1,037 $6.16 $-6
Paloma Partners Management Co 2017-03-31 -32,452 $6.16 $-199
Patriot Financial Group Insurance Agency Llc 2017-03-31 652 $6.16 $4
Perigon Wealth Management Llc 2017-03-31 114 $6.16 $0
Piedmont Investment Advisors Llc 2017-03-31 5,439 $6.16 $33
Pineview Asset Management Lp 2017-03-31 186,569 $6.16 $1,149
Pinkerton Retirement Specialists Llc 2017-03-31 -1,650 $6.16 $-10
Pittenger Anderson Inc 2017-03-31 -3,475 $6.16 $-21
Plancorp Llc 2017-03-31 4,561 $6.16 $28
Platinum Investment Management Ltd 2017-03-31 26,200 $6.16 $161
Proficio Capital Partners Llc 2017-03-31 1,309 $6.16 $8
Public Employees Retirement System Of Ohio 2017-03-31 66,774 $6.16 $411
Puzo Michael J 2017-03-31 -5,900 $6.16 $-36
Quest Investment Management Inc Or 2017-03-31 -850 $6.16 $-5
Raymond James Associates 2017-03-31 357,950 $6.16 $2,204
Reynders Mcveigh Capital Management Llc 2017-03-31 -3,341 $6.16 $-20
Richard Bernstein Advisors Llc 2017-03-31 0 $6.16 $0
Riverhead Capital Management Llc 2017-03-31 -23,363 $6.16 $-143
River Wealth Advisors Llc 2017-03-31 -2,173 $6.16 $-13
Rocky Mountain Advisers Llc 2017-03-31 0 $6.16 $0
Rothschild Asset Management Inc 2017-03-31 191,927 $6.16 $1,182
Roundview Capital Llc 2017-03-31 7,995 $6.16 $49
Salem Investment Counselors Inc 2017-03-31 350 $6.16 $2
Samlyn Capital Llc 2017-03-31 436,300 $6.16 $2,687
Sather Financial Group Inc 2017-03-31 50 $6.16 $0
Saturna Capital Corp 2017-03-31 -2,000 $6.16 $-12
Schnieders Capital Management Llc 2017-03-31 -1,000 $6.16 $-6
Schonfeld Strategic Advisors Llc 2017-03-31 16,019 $6.16 $98
Schwerin Boyle Capital Management Inc 2017-03-31 0 $6.16 $0
Sciencast Management Lp 2017-03-31 6,393 $6.16 $39
Scotia Capital Inc 2017-03-31 42,446 $6.16 $261
Segall Bryant Hamill Llc 2017-03-31 -5,579 $6.16 $-34
Sentinel Asset Management Inc 2017-03-31 0 $6.16 $0
Sequoia Financial Advisors Llc 2017-03-31 7,883 $6.16 $48
Seven Eight Capital Lp 2017-03-31 98,281 $6.16 $605
Signaturefd Llc 2017-03-31 1,432 $6.16 $8
Silvercrest Asset Management Group Llc 2017-03-31 -10,848 $6.16 $-66
Sns Financial Group Llc 2017-03-31 -9,585 $6.16 $-59
Somerville Kurt F 2017-03-31 -13,258 $6.16 $-81
Sowell Financial Services Llc 2017-03-31 1,593 $6.16 $9
Squarepoint Ops Llc 2017-03-31 154,549 $6.16 $952
Srs Capital Advisors Inc 2017-03-31 653 $6.16 $4
Sterling Capital Management Llc 2017-03-31 54,856 $6.16 $337
Sterling Investment Advisors Ltd 2017-03-31 -1,900 $6.16 $-11
Stewart West Indies Trading Co Ltd 2017-03-31 0 $6.16 $0
Stifel Financial Corp 2017-03-31 115,846 $6.16 $713
Strategic Financial Services Inc 2017-03-31 -205 $6.16 $-1
Sva Plumb Wealth Management Llc 2017-03-31 4 $6.16 $0
Taurus Asset Management Llc 2017-03-31 -5,050 $6.16 $-31
Tiverton Asset Management Llc 2017-03-31 -61,968 $6.16 $-381
Tortoise Investment Management Llc 2017-03-31 137 $6.16 $0
Two Sigma Securities Llc 2017-03-31 4,955 $6.16 $30
Tyers Asset Management Llc 2017-03-31 -46,004 $6.16 $-283
United American Securities Inc D B A Uas Asset Management 2017-03-31 34,225 $6.16 $210
United Capital Financial Advisers Llc 2017-03-31 17,457 $6.16 $107
Usa Financial Portformulas Corp 2017-03-31 6,732 $6.16 $41
Veritable L P 2017-03-31 -2,194 $6.16 $-13
Verition Fund Management Llc 2017-03-31 -2,399 $6.16 $-14
Vestor Capital Llc 2017-03-31 0 $6.16 $0
Voloridge Investment Management Llc 2017-03-31 427,905 $6.16 $2,635
Wafra Investment Advisory Group Inc Ny 2017-03-31 -18,495 $6.16 $-113
Walleye Trading Llc 2017-03-31 -15,279 $6.16 $-94
Wasatch Advisors Inc 2017-03-31 -59,076 $6.16 $-363
Waters Parkerson Co Llc 2017-03-31 12,110 $6.16 $74
Wayne Hummer Investments L L C 2017-03-31 11,311 $6.16 $69
Wealthsource Partners Llc 2017-03-31 1,178 $6.16 $7
Weatherly Asset Management L P 2017-03-31 3 $6.16 $0
Webster Bank N A 2017-03-31 7,309 $6.16 $45
Weitz Investment Management Inc 2017-03-31 -68,101 $6.16 $-419
Westside Investment Management Inc 2017-03-31 10,375 $6.16 $63
Westwood Holdings Group Inc 2017-03-31 -122,798 $6.16 $-756
Wills Financial Group Inc 2017-03-31 -9,118 $6.16 $-56
Wimmer Associates 1 Llc 2017-03-31 0 $6.16 $0
Wunderlich Capital Managemnt 2017-03-31 -8,539 $6.16 $-52
Yorkbridge Wealth Partners Llc 2017-03-31 -696 $6.16 $-4
Zevin Asset Management Llc 2017-03-31 73 $6.16 $0